Hlavní strana
METAR-TAF:

METAR-TAF

Letiště :

Bamako, Mali

zeměpisná šířka: 12-32N, zeměpisná délka: 007-57W, výška: 380 m

Aktuální stav počasí

Zpráva byla vytvořena před 33 minutami, v 17:30 UTC
Západoseverozápadní vítr 5 kt
Teplota 40°C
Vlhkost vzduchu 17%
Tlak 1009 hPa
Viditelnost 10 km a více
Skoro jasno ve výšce 3000 ft

METAR: GABS 241730Z 29005KT 9999 FEW030 40/10 Q1009 NOSIG

Čas: 18:03 (18:03 UTC)

Předpověď počasí

Zpráva byla vytvořena před 33 minutami, v 17:30 UTC
Předpověď platná od 24 v 18 UTC do 25 v 24 UTC
Jihozápadní vítr 10 kt
Viditelnost 10 km a více
Skoro jasno ve výšce 3000 ft
Pravděpodobnost 40% :
Dočasný
od 25 v 15 UTC do 25 v 22 UTC
Polojasno ve výšce 3000 ft
Skoro jasno ve výšce 4000 ft, Cumulonimbus.
bouřka, déšť

TAF: GABS 241730Z 2418/2524 22010KT 9999 FEW030 PROB40 TEMPO 2515/2522 TSRA SCT030 FEW040CB

Stav a předpovědi počasí z více než 4 000 letišť (zprávy METAR a TAF).

Červené a žluté tečky na mapě představují dostupné meteorologické stanice.

Když kurzor umístíte na tečku, zobrazí se název stanice.

Pak kliknutím zobrazíte stav a předpověď počasí.

Chcete-li změnit mapu, kliknutím na zelené tlačítko se znaménkem +mapu přiblížíte, kliknutím na zelené tlačítko se znaménkem – mapu oddálíte a kliknutím na zelené šipky přejdete na sousední mapy.


METAR-TAF: